sensor_id;sensor_type;location;lat;lon;timestamp;pressure;altitude;pressure_sealevel;temperature;humidity
64668;BME280;51077;42.716;23.344;2022-12-22T00:01:27;95604.25;;;5.66;45.75
64668;BME280;51077;42.716;23.344;2022-12-22T00:04:11;95601.25;;;5.64;45.92
64668;BME280;51077;42.716;23.344;2022-12-22T00:06:55;95597.03;;;5.63;45.96
64668;BME280;51077;42.716;23.344;2022-12-22T00:09:39;95596.72;;;5.61;45.70
64668;BME280;51077;42.716;23.344;2022-12-22T00:12:23;95599.19;;;5.59;45.94
64668;BME280;51077;42.716;23.344;2022-12-22T00:15:14;95598.63;;;5.55;45.95
64668;BME280;51077;42.716;23.344;2022-12-22T00:18:00;95606.97;;;5.51;46.21
64668;BME280;51077;42.716;23.344;2022-12-22T00:20:45;95606.72;;;5.49;46.13
64668;BME280;51077;42.716;23.344;2022-12-22T00:23:29;95599.47;;;5.46;46.16
64668;BME280;51077;42.716;23.344;2022-12-22T00:26:13;95599.94;;;5.45;46.26
64668;BME280;51077;42.716;23.344;2022-12-22T00:28:57;95596.19;;;5.42;46.23
64668;BME280;51077;42.716;23.344;2022-12-22T00:31:41;95593.19;;;5.40;46.24
64668;BME280;51077;42.716;23.344;2022-12-22T00:34:26;95594.13;;;5.37;46.15
64668;BME280;51077;42.716;23.344;2022-12-22T00:37:12;95590.66;;;5.37;45.91
64668;BME280;51077;42.716;23.344;2022-12-22T00:39:57;95601.25;;;5.35;46.36
64668;BME280;51077;42.716;23.344;2022-12-22T00:42:42;95597.50;;;5.32;46.15
64668;BME280;51077;42.716;23.344;2022-12-22T00:45:26;95593.75;;;5.29;46.30
64668;BME280;51077;42.716;23.344;2022-12-22T00:48:24;95584.09;;;5.28;46.12
64668;BME280;51077;42.716;23.344;2022-12-22T00:51:10;95585.75;;;5.26;46.45
64668;BME280;51077;42.716;23.344;2022-12-22T00:53:55;95592.44;;;5.25;46.13
64668;BME280;51077;42.716;23.344;2022-12-22T00:56:39;95586.22;;;5.24;46.28
64668;BME280;51077;42.716;23.344;2022-12-22T00:59:25;95578.25;;;5.21;46.34
64668;BME280;51077;42.716;23.344;2022-12-22T01:02:10;95574.50;;;5.18;46.25
64668;BME280;51077;42.716;23.344;2022-12-22T01:04:54;95576.66;;;5.14;46.32
64668;BME280;51077;42.716;23.344;2022-12-22T01:07:38;95578.66;;;5.14;46.22
64668;BME280;51077;42.716;23.344;2022-12-22T01:10:23;95570.19;;;5.12;46.37
64668;BME280;51077;42.716;23.344;2022-12-22T01:13:13;95579.28;;;5.09;46.30
64668;BME280;51077;42.716;23.344;2022-12-22T01:15:58;95570.84;;;5.07;46.46
64668;BME280;51077;42.716;23.344;2022-12-22T01:18:42;95564.34;;;5.04;46.35
64668;BME280;51077;42.716;23.344;2022-12-22T01:21:26;95564.09;;;5.02;46.70
64668;BME280;51077;42.716;23.344;2022-12-22T01:24:12;95557.88;;;5.01;46.40
64668;BME280;51077;42.716;23.344;2022-12-22T01:26:56;95558.34;;;5.00;46.38
64668;BME280;51077;42.716;23.344;2022-12-22T01:29:41;95551.13;;;4.97;46.48
64668;BME280;51077;42.716;23.344;2022-12-22T01:32:25;95556.28;;;4.95;46.43
64668;BME280;51077;42.716;23.344;2022-12-22T01:35:25;95558.72;;;4.93;46.40
64668;BME280;51077;42.716;23.344;2022-12-22T01:38:09;95564.63;;;4.91;46.45
64668;BME280;51077;42.716;23.344;2022-12-22T01:40:54;95558.91;;;4.89;46.52
64668;BME280;51077;42.716;23.344;2022-12-22T01:43:38;95546.53;;;4.88;46.59
64668;BME280;51077;42.716;23.344;2022-12-22T01:46:28;95559.84;;;4.86;46.72
64668;BME280;51077;42.716;23.344;2022-12-22T01:49:36;95558.03;;;4.83;46.47
64668;BME280;51077;42.716;23.344;2022-12-22T01:52:25;95552.31;;;4.81;46.69
64668;BME280;51077;42.716;23.344;2022-12-22T01:55:12;95552.06;;;4.79;46.67
64668;BME280;51077;42.716;23.344;2022-12-22T01:57:58;95559.91;;;4.77;46.60
64668;BME280;51077;42.716;23.344;2022-12-22T02:00:43;95564.59;;;4.76;46.51
64668;BME280;51077;42.716;23.344;2022-12-22T02:03:28;95565.06;;;4.75;46.62
64668;BME280;51077;42.716;23.344;2022-12-22T02:06:39;95556.34;;;4.71;46.60
64668;BME280;51077;42.716;23.344;2022-12-22T02:12:24;95556.69;;;4.64;46.92
64668;BME280;51077;42.716;23.344;2022-12-22T02:18:18;95558.38;;;4.61;46.41
64668;BME280;51077;42.716;23.344;2022-12-22T02:21:10;95558.56;;;4.58;46.81
64668;BME280;51077;42.716;23.344;2022-12-22T02:24:32;95554.31;;;4.57;46.87
64668;BME280;51077;42.716;23.344;2022-12-22T02:27:18;95552.56;;;4.53;46.75
64668;BME280;51077;42.716;23.344;2022-12-22T02:30:05;95556.19;;;4.50;46.94
64668;BME280;51077;42.716;23.344;2022-12-22T02:32:50;95555.91;;;4.48;46.63
64668;BME280;51077;42.716;23.344;2022-12-22T02:48:26;95551.75;;;4.38;46.89
64668;BME280;51077;42.716;23.344;2022-12-22T02:51:17;95546.03;;;4.36;46.87
64668;BME280;51077;42.716;23.344;2022-12-22T02:54:04;95546.47;;;4.35;46.90
64668;BME280;51077;42.716;23.344;2022-12-22T02:56:49;95540.78;;;4.33;46.93
64668;BME280;51077;42.716;23.344;2022-12-22T02:59:33;95549.41;;;4.31;46.94
64668;BME280;51077;42.716;23.344;2022-12-22T03:02:17;95536.25;;;4.29;47.02
64668;BME280;51077;42.716;23.344;2022-12-22T03:05:01;95545.63;;;4.28;47.11
64668;BME280;51077;42.716;23.344;2022-12-22T03:07:45;95546.84;;;4.27;46.81
64668;BME280;51077;42.716;23.344;2022-12-22T03:10:29;95546.84;;;4.27;46.95
64668;BME280;51077;42.716;23.344;2022-12-22T03:13:13;95532.22;;;4.25;46.79
64668;BME280;51077;42.716;23.344;2022-12-22T03:15:57;95548.50;;;4.25;46.95
64668;BME280;51077;42.716;23.344;2022-12-22T03:18:41;95545.53;;;4.23;46.94
64668;BME280;51077;42.716;23.344;2022-12-22T03:21:26;95554.88;;;4.22;46.85
64668;BME280;51077;42.716;23.344;2022-12-22T03:24:10;95547.94;;;4.21;47.14
64668;BME280;51077;42.716;23.344;2022-12-22T03:26:54;95541.75;;;4.20;47.00
64668;BME280;51077;42.716;23.344;2022-12-22T03:29:19;95548.09;;;4.17;46.89
64668;BME280;51077;42.716;23.344;2022-12-22T03:31:45;95539.19;;;4.17;47.07
64668;BME280;51077;42.716;23.344;2022-12-22T03:34:10;95550.06;;;4.17;46.91
64668;BME280;51077;42.716;23.344;2022-12-22T03:36:36;95544.38;;;4.15;47.04
64668;BME280;51077;42.716;23.344;2022-12-22T03:39:01;95544.38;;;4.15;46.94
64668;BME280;51077;42.716;23.344;2022-12-22T03:41:27;95542.88;;;4.14;47.01
64668;BME280;51077;42.716;23.344;2022-12-22T03:44:11;95547.53;;;4.13;46.97
64668;BME280;51077;42.716;23.344;2022-12-22T03:46:55;95545.75;;;4.10;46.85
64668;BME280;51077;42.716;23.344;2022-12-22T03:49:20;95547.72;;;4.10;47.36
64668;BME280;51077;42.716;23.344;2022-12-22T03:51:51;95550.88;;;4.08;47.37
64668;BME280;51077;42.716;23.344;2022-12-22T03:54:23;95548.63;;;4.07;46.91
64668;BME280;51077;42.716;23.344;2022-12-22T03:56:50;95544.88;;;4.04;47.07
64668;BME280;51077;42.716;23.344;2022-12-22T03:59:17;95547.56;;;4.04;47.15
64668;BME280;51077;42.716;23.344;2022-12-22T04:01:45;95546.09;;;4.03;47.23
64668;BME280;51077;42.716;23.344;2022-12-22T04:04:13;95539.59;;;4.00;47.07
64668;BME280;51077;42.716;23.344;2022-12-22T04:06:38;95543.53;;;3.99;47.06
64668;BME280;51077;42.716;23.344;2022-12-22T04:09:04;95548.22;;;3.99;47.02
64668;BME280;51077;42.716;23.344;2022-12-22T04:11:30;95549.13;;;3.96;47.08
64668;BME280;51077;42.716;23.344;2022-12-22T04:14:14;95543.41;;;3.94;47.14
64668;BME280;51077;42.716;23.344;2022-12-22T04:16:40;95536.94;;;3.91;47.08
64668;BME280;51077;42.716;23.344;2022-12-22T04:19:06;95539.38;;;3.89;47.37
64668;BME280;51077;42.716;23.344;2022-12-22T04:21:33;95545.72;;;3.86;47.20
64668;BME280;51077;42.716;23.344;2022-12-22T04:23:58;95545.44;;;3.84;47.15
64668;BME280;51077;42.716;23.344;2022-12-22T04:26:24;95549.38;;;3.83;47.28
64668;BME280;51077;42.716;23.344;2022-12-22T04:28:50;95541.66;;;3.82;47.65
64668;BME280;51077;42.716;23.344;2022-12-22T04:31:16;95545.13;;;3.82;47.39
64668;BME280;51077;42.716;23.344;2022-12-22T04:33:42;95534.75;;;3.81;47.30
64668;BME280;51077;42.716;23.344;2022-12-22T04:36:08;95538.38;;;3.77;47.45
64668;BME280;51077;42.716;23.344;2022-12-22T04:38:34;95536.88;;;3.76;47.28
64668;BME280;51077;42.716;23.344;2022-12-22T04:40:59;95544.28;;;3.76;47.34
64668;BME280;51077;42.716;23.344;2022-12-22T04:43:25;95541.25;;;3.74;47.59
64668;BME280;51077;42.716;23.344;2022-12-22T04:45:54;95545.47;;;3.75;47.39
64668;BME280;51077;42.716;23.344;2022-12-22T04:48:20;95539.31;;;3.74;47.67
64668;BME280;51077;42.716;23.344;2022-12-22T04:50:49;95541.56;;;3.76;47.30
64668;BME280;51077;42.716;23.344;2022-12-22T04:53:15;95543.22;;;3.73;47.48
64668;BME280;51077;42.716;23.344;2022-12-22T04:55:48;95536.28;;;3.72;47.81
64668;BME280;51077;42.716;23.344;2022-12-22T04:58:14;95541.44;;;3.70;47.50
64668;BME280;51077;42.716;23.344;2022-12-22T05:00:40;95541.88;;;3.69;47.32
64668;BME280;51077;42.716;23.344;2022-12-22T05:03:06;95530.00;;;3.66;47.71
64668;BME280;51077;42.716;23.344;2022-12-22T05:05:32;95533.47;;;3.67;47.46
64668;BME280;51077;42.716;23.344;2022-12-22T05:07:57;95530.44;;;3.65;47.83
64668;BME280;51077;42.716;23.344;2022-12-22T05:10:23;95527.72;;;3.65;47.67
64668;BME280;51077;42.716;23.344;2022-12-22T05:12:49;95544.75;;;3.65;47.46
64668;BME280;51077;42.716;23.344;2022-12-22T05:15:32;95537.38;;;3.66;47.69
64668;BME280;51077;42.716;23.344;2022-12-22T05:17:58;95542.50;;;3.64;47.64
64668;BME280;51077;42.716;23.344;2022-12-22T05:20:25;95543.25;;;3.64;47.34
64668;BME280;51077;42.716;23.344;2022-12-22T05:22:50;95541.75;;;3.63;47.85
64668;BME280;51077;42.716;23.344;2022-12-22T05:25:16;95547.66;;;3.62;47.40
64668;BME280;51077;42.716;23.344;2022-12-22T05:27:47;95548.84;;;3.61;47.89
64668;BME280;51077;42.716;23.344;2022-12-22T05:30:14;95551.56;;;3.61;47.97
64668;BME280;51077;42.716;23.344;2022-12-22T05:32:40;95554.75;;;3.59;47.68
64668;BME280;51077;42.716;23.344;2022-12-22T05:35:06;95551.75;;;3.57;47.91
64668;BME280;51077;42.716;23.344;2022-12-22T05:37:32;95545.84;;;3.59;47.59
64668;BME280;51077;42.716;23.344;2022-12-22T05:39:57;95553.69;;;3.57;47.86
64668;BME280;51077;42.716;23.344;2022-12-22T05:42:23;95556.41;;;3.57;47.87
64668;BME280;51077;42.716;23.344;2022-12-22T05:45:21;95560.63;;;3.58;47.50
64668;BME280;51077;42.716;23.344;2022-12-22T05:47:49;95546.75;;;3.56;47.72
64668;BME280;51077;42.716;23.344;2022-12-22T05:50:17;95548.56;;;3.59;47.85
64668;BME280;51077;42.716;23.344;2022-12-22T05:52:43;95549.31;;;3.59;47.99
64668;BME280;51077;42.716;23.344;2022-12-22T05:55:10;95548.56;;;3.59;47.93
64668;BME280;51077;42.716;23.344;2022-12-22T05:57:36;95555.50;;;3.60;47.83
64668;BME280;51077;42.716;23.344;2022-12-22T06:00:04;95550.81;;;3.60;47.70
64668;BME280;51077;42.716;23.344;2022-12-22T06:02:29;95554.59;;;3.63;47.80
64668;BME280;51077;42.716;23.344;2022-12-22T06:04:55;95551.41;;;3.64;47.55
64668;BME280;51077;42.716;23.344;2022-12-22T06:07:20;95561.63;;;3.69;47.73
64668;BME280;51077;42.716;23.344;2022-12-22T06:09:46;95545.94;;;3.73;47.65
64668;BME280;51077;42.716;23.344;2022-12-22T06:12:11;95554.50;;;3.81;47.53
64668;BME280;51077;42.716;23.344;2022-12-22T06:14:37;95555.66;;;3.89;47.11
64668;BME280;51077;42.716;23.344;2022-12-22T06:17:03;95554.41;;;3.99;47.15
64668;BME280;51077;42.716;23.344;2022-12-22T06:19:28;95549.22;;;4.11;47.04
64668;BME280;51077;42.716;23.344;2022-12-22T06:21:54;95550.22;;;4.22;47.18
64668;BME280;51077;42.716;23.344;2022-12-22T06:24:19;95550.72;;;4.36;46.63
64668;BME280;51077;42.716;23.344;2022-12-22T06:26:44;95560.41;;;4.51;46.38
64668;BME280;51077;42.716;23.344;2022-12-22T06:29:10;95560.25;;;4.70;46.37
64668;BME280;51077;42.716;23.344;2022-12-22T06:31:35;95561.63;;;4.89;45.62
64668;BME280;51077;42.716;23.344;2022-12-22T06:34:00;95557.50;;;5.09;45.46
64668;BME280;51077;42.716;23.344;2022-12-22T06:36:26;95558.19;;;5.33;45.15
64668;BME280;51077;42.716;23.344;2022-12-22T06:38:51;95565.97;;;5.55;44.71
64668;BME280;51077;42.716;23.344;2022-12-22T06:41:17;95565.06;;;5.78;44.53
64668;BME280;51077;42.716;23.344;2022-12-22T06:44:02;95569.47;;;6.06;43.84
64668;BME280;51077;42.716;23.344;2022-12-22T06:46:27;95567.31;;;6.30;44.02
64668;BME280;51077;42.716;23.344;2022-12-22T06:48:53;95565.88;;;6.55;43.58
64668;BME280;51077;42.716;23.344;2022-12-22T06:51:18;95566.69;;;6.82;42.94
64668;BME280;51077;42.716;23.344;2022-12-22T06:53:44;95574.91;;;7.08;42.31
64668;BME280;51077;42.716;23.344;2022-12-22T06:56:09;95578.38;;;7.34;42.15
64668;BME280;51077;42.716;23.344;2022-12-22T06:58:34;95573.19;;;7.62;41.45
64668;BME280;51077;42.716;23.344;2022-12-22T07:01:00;95579.59;;;7.91;41.03
64668;BME280;51077;42.716;23.344;2022-12-22T07:03:25;95575.81;;;8.20;41.11
64668;BME280;51077;42.716;23.344;2022-12-22T07:05:51;95572.75;;;8.49;40.66
64668;BME280;51077;42.716;23.344;2022-12-22T07:08:16;95575.09;;;8.79;40.12
64668;BME280;51077;42.716;23.344;2022-12-22T07:10:41;95571.44;;;9.04;39.53
64668;BME280;51077;42.716;23.344;2022-12-22T07:13:23;95581.75;;;9.38;39.21
64668;BME280;51077;42.716;23.344;2022-12-22T07:15:49;95576.78;;;9.64;38.99
64668;BME280;51077;42.716;23.344;2022-12-22T07:18:14;95572.31;;;9.89;38.59
64668;BME280;51077;42.716;23.344;2022-12-22T07:20:40;95577.25;;;10.07;38.32
64668;BME280;51077;42.716;23.344;2022-12-22T07:23:05;95574.00;;;10.26;38.05
64668;BME280;51077;42.716;23.344;2022-12-22T07:25:31;95567.22;;;10.44;37.89
64668;BME280;51077;42.716;23.344;2022-12-22T07:27:56;95577.38;;;10.66;37.70
64668;BME280;51077;42.716;23.344;2022-12-22T07:30:22;95573.34;;;10.78;37.60
64668;BME280;51077;42.716;23.344;2022-12-22T07:32:47;95573.06;;;10.93;37.21
64668;BME280;51077;42.716;23.344;2022-12-22T07:35:13;95573.22;;;11.12;37.00
64668;BME280;51077;42.716;23.344;2022-12-22T07:37:38;95577.63;;;11.26;36.60
64668;BME280;51077;42.716;23.344;2022-12-22T07:40:04;95574.34;;;11.33;36.66
64668;BME280;51077;42.716;23.344;2022-12-22T07:42:29;95574.25;;;11.44;36.67
64668;BME280;51077;42.716;23.344;2022-12-22T07:45:15;95579.59;;;11.67;36.21
64668;BME280;51077;42.716;23.344;2022-12-22T07:47:41;95583.97;;;11.87;36.25
64668;BME280;51077;42.716;23.344;2022-12-22T07:50:10;95590.72;;;12.16;35.88
64668;BME280;51077;42.716;23.344;2022-12-22T07:52:57;95583.19;;;12.46;35.27
64668;BME280;51077;42.716;23.344;2022-12-22T07:55:25;95575.28;;;12.80;35.02
64668;BME280;51077;42.716;23.344;2022-12-22T07:57:51;95571.16;;;13.12;34.48
64668;BME280;51077;42.716;23.344;2022-12-22T08:00:17;95571.22;;;13.44;34.28
64668;BME280;51077;42.716;23.344;2022-12-22T08:02:47;95570.19;;;13.79;33.79
64668;BME280;51077;42.716;23.344;2022-12-22T08:05:13;95566.69;;;14.11;33.38
64668;BME280;51077;42.716;23.344;2022-12-22T08:07:39;95567.34;;;14.43;32.93
64668;BME280;51077;42.716;23.344;2022-12-22T08:10:04;95565.78;;;14.74;32.58
64668;BME280;51077;42.716;23.344;2022-12-22T08:12:30;95571.38;;;15.08;32.26
64668;BME280;51077;42.716;23.344;2022-12-22T08:14:56;95562.38;;;15.42;31.75
64668;BME280;51077;42.716;23.344;2022-12-22T08:17:22;95571.75;;;15.73;31.58
64668;BME280;51077;42.716;23.344;2022-12-22T08:19:48;95570.56;;;16.11;31.03
64668;BME280;51077;42.716;23.344;2022-12-22T08:22:14;95571.25;;;16.53;30.52
64668;BME280;51077;42.716;23.344;2022-12-22T08:24:39;95565.25;;;16.91;30.11
64668;BME280;51077;42.716;23.344;2022-12-22T08:27:09;95560.91;;;17.18;29.69
64668;BME280;51077;42.716;23.344;2022-12-22T08:29:42;95570.25;;;17.44;29.18
64668;BME280;51077;42.716;23.344;2022-12-22T08:32:11;95568.47;;;17.69;29.15
64668;BME280;51077;42.716;23.344;2022-12-22T08:34:37;95574.06;;;17.92;28.98
64668;BME280;51077;42.716;23.344;2022-12-22T08:37:04;95561.34;;;18.20;28.58
64668;BME280;51077;42.716;23.344;2022-12-22T08:39:32;95559.84;;;18.42;28.50
64668;BME280;51077;42.716;23.344;2022-12-22T08:41:59;95560.53;;;18.65;28.33
64668;BME280;51077;42.716;23.344;2022-12-22T08:44:28;95551.03;;;18.91;28.22
64668;BME280;51077;42.716;23.344;2022-12-22T08:46:56;95551.53;;;19.13;27.87
64668;BME280;51077;42.716;23.344;2022-12-22T08:49:22;95552.16;;;19.36;27.67
64668;BME280;51077;42.716;23.344;2022-12-22T08:51:48;95548.72;;;19.61;27.54
64668;BME280;51077;42.716;23.344;2022-12-22T08:54:14;95542.63;;;19.87;27.19
64668;BME280;51077;42.716;23.344;2022-12-22T08:56:40;95541.69;;;20.09;27.07
64668;BME280;51077;42.716;23.344;2022-12-22T08:59:06;95544.47;;;20.34;26.75
64668;BME280;51077;42.716;23.344;2022-12-22T09:01:33;95545.03;;;20.58;26.53
64668;BME280;51077;42.716;23.344;2022-12-22T09:04:00;95540.69;;;20.82;26.47
64668;BME280;51077;42.716;23.344;2022-12-22T09:06:26;95530.75;;;21.06;26.20
64668;BME280;51077;42.716;23.344;2022-12-22T09:08:57;95525.31;;;21.25;25.84
64668;BME280;51077;42.716;23.344;2022-12-22T09:11:23;95520.59;;;21.45;25.64
64668;BME280;51077;42.716;23.344;2022-12-22T09:13:52;95519.53;;;21.68;25.15
64668;BME280;51077;42.716;23.344;2022-12-22T09:16:19;95516.44;;;21.91;25.17
64668;BME280;51077;42.716;23.344;2022-12-22T09:18:45;95514.75;;;22.15;24.85
64668;BME280;51077;42.716;23.344;2022-12-22T09:21:11;95507.91;;;22.35;24.65
64668;BME280;51077;42.716;23.344;2022-12-22T09:23:36;95496.28;;;22.58;24.51
64668;BME280;51077;42.716;23.344;2022-12-22T09:26:10;95509.84;;;22.81;24.06
64668;BME280;51077;42.716;23.344;2022-12-22T09:28:36;95502.09;;;22.99;24.07
64668;BME280;51077;42.716;23.344;2022-12-22T09:31:02;95504.41;;;23.22;23.85
64668;BME280;51077;42.716;23.344;2022-12-22T09:33:28;95504.38;;;23.41;23.45
64668;BME280;51077;42.716;23.344;2022-12-22T09:35:53;95498.88;;;23.63;23.54
64668;BME280;51077;42.716;23.344;2022-12-22T09:38:19;95501.03;;;23.83;23.22
64668;BME280;51077;42.716;23.344;2022-12-22T09:40:44;95505.81;;;24.02;22.98
64668;BME280;51077;42.716;23.344;2022-12-22T09:43:16;95500.72;;;24.20;22.74
64668;BME280;51077;42.716;23.344;2022-12-22T09:45:43;95500.19;;;24.33;22.61
64668;BME280;51077;42.716;23.344;2022-12-22T09:48:11;95487.44;;;24.52;22.64
64668;BME280;51077;42.716;23.344;2022-12-22T09:50:39;95494.09;;;24.68;22.45
64668;BME280;51077;42.716;23.344;2022-12-22T09:53:10;95486.59;;;24.82;22.32
64668;BME280;51077;42.716;23.344;2022-12-22T09:55:41;95487.63;;;24.99;22.17
64668;BME280;51077;42.716;23.344;2022-12-22T09:58:18;95486.16;;;25.19;22.10
64668;BME280;51077;42.716;23.344;2022-12-22T10:00:54;95476.81;;;25.38;21.47
64668;BME280;51077;42.716;23.344;2022-12-22T10:03:46;95465.97;;;25.56;21.70
64668;BME280;51077;42.716;23.344;2022-12-22T10:09:28;95461.97;;;25.94;21.36
64668;BME280;51077;42.716;23.344;2022-12-22T10:12:00;95455.13;;;26.09;21.27
64668;BME280;51077;42.716;23.344;2022-12-22T10:14:32;95452.41;;;26.23;21.27
64668;BME280;51077;42.716;23.344;2022-12-22T10:17:30;95440.53;;;26.36;20.95
64668;BME280;51077;42.716;23.344;2022-12-22T10:27:55;95416.13;;;26.90;20.57
64668;BME280;51077;42.716;23.344;2022-12-22T10:30:33;95414.00;;;27.02;20.50
64668;BME280;51077;42.716;23.344;2022-12-22T10:33:14;95418.38;;;27.17;20.28
64668;BME280;51077;42.716;23.344;2022-12-22T10:38:32;95401.59;;;27.46;19.88
64668;BME280;51077;42.716;23.344;2022-12-22T10:43:39;95391.50;;;27.69;19.61
64668;BME280;51077;42.716;23.344;2022-12-22T10:46:10;95392.09;;;27.79;19.82
64668;BME280;51077;42.716;23.344;2022-12-22T10:48:37;95391.03;;;27.86;19.68
64668;BME280;51077;42.716;23.344;2022-12-22T10:51:06;95385.78;;;27.94;19.40
64668;BME280;51077;42.716;23.344;2022-12-22T10:53:46;95393.31;;;28.03;19.44
64668;BME280;51077;42.716;23.344;2022-12-22T10:56:22;95391.13;;;28.16;19.24
64668;BME280;51077;42.716;23.344;2022-12-22T10:59:16;95380.97;;;28.24;18.87
64668;BME280;51077;42.716;23.344;2022-12-22T11:01:43;95382.09;;;28.33;19.19
64668;BME280;51077;42.716;23.344;2022-12-22T11:04:27;95381.28;;;28.44;18.98
64668;BME280;51077;42.716;23.344;2022-12-22T11:06:54;95377.38;;;28.51;18.83
64668;BME280;51077;42.716;23.344;2022-12-22T11:09:24;95361.66;;;28.62;18.76
64668;BME280;51077;42.716;23.344;2022-12-22T11:12:00;95365.69;;;28.73;18.73
64668;BME280;51077;42.716;23.344;2022-12-22T11:17:18;95359.06;;;28.82;18.67
64668;BME280;51077;42.716;23.344;2022-12-22T11:22:50;95348.97;;;28.93;18.57
64668;BME280;51077;42.716;23.344;2022-12-22T11:35:58;95335.00;;;29.26;18.31
64668;BME280;51077;42.716;23.344;2022-12-22T11:38:53;95344.31;;;29.29;18.06
64668;BME280;51077;42.716;23.344;2022-12-22T11:41:51;95341.22;;;29.39;18.05
64668;BME280;51077;42.716;23.344;2022-12-22T11:44:36;95336.56;;;29.45;18.00
64668;BME280;51077;42.716;23.344;2022-12-22T11:55:35;95329.53;;;29.46;18.07
64668;BME280;51077;42.716;23.344;2022-12-22T12:01:00;95325.06;;;29.41;18.16
64668;BME280;51077;42.716;23.344;2022-12-22T12:04:07;95320.59;;;29.36;18.10
64668;BME280;51077;42.716;23.344;2022-12-22T12:06:59;95309.09;;;29.32;18.07
64668;BME280;51077;42.716;23.344;2022-12-22T12:15:20;95293.00;;;28.89;18.32
64668;BME280;51077;42.716;23.344;2022-12-22T12:20:55;95298.34;;;28.67;18.50
64668;BME280;51077;42.716;23.344;2022-12-22T12:31:21;95288.88;;;28.31;18.82
64668;BME280;51077;42.716;23.344;2022-12-22T12:33:51;95292.41;;;28.31;18.91
64668;BME280;51077;42.716;23.344;2022-12-22T12:44:18;95284.41;;;28.12;19.12
64668;BME280;51077;42.716;23.344;2022-12-22T12:46:54;95292.91;;;27.98;19.21
64668;BME280;51077;42.716;23.344;2022-12-22T12:51:58;95271.53;;;27.66;19.36
64668;BME280;51077;42.716;23.344;2022-12-22T12:57:09;95275.59;;;27.21;19.99
64668;BME280;51077;42.716;23.344;2022-12-22T13:10:31;95269.44;;;25.72;21.29
64668;BME280;51077;42.716;23.344;2022-12-22T13:12:57;95266.44;;;25.44;21.30
64668;BME280;51077;42.716;23.344;2022-12-22T13:15:32;95261.81;;;25.14;21.75
64668;BME280;51077;42.716;23.344;2022-12-22T13:17:58;95277.53;;;24.83;21.96
64668;BME280;51077;42.716;23.344;2022-12-22T13:20:31;95266.59;;;24.54;22.15
64668;BME280;51077;42.716;23.344;2022-12-22T13:22:58;95261.84;;;24.24;22.45
64668;BME280;51077;42.716;23.344;2022-12-22T13:28:15;95263.69;;;23.65;22.93
64668;BME280;51077;42.716;23.344;2022-12-22T13:30:49;95261.63;;;23.34;23.49
64668;BME280;51077;42.716;23.344;2022-12-22T13:33:20;95267.66;;;23.09;23.47
64668;BME280;51077;42.716;23.344;2022-12-22T13:35:48;95260.78;;;22.81;23.62
64668;BME280;51077;42.716;23.344;2022-12-22T13:38:29;95267.34;;;22.54;24.24
64668;BME280;51077;42.716;23.344;2022-12-22T13:40:56;95266.97;;;22.29;24.25
64668;BME280;51077;42.716;23.344;2022-12-22T13:43:23;95256.53;;;22.00;24.57
64668;BME280;51077;42.716;23.344;2022-12-22T13:45:52;95254.03;;;21.75;24.86
64668;BME280;51077;42.716;23.344;2022-12-22T13:48:26;95250.19;;;21.51;25.25
64668;BME280;51077;42.716;23.344;2022-12-22T13:51:07;95259.53;;;21.27;25.45
64668;BME280;51077;42.716;23.344;2022-12-22T13:55:59;95249.88;;;20.91;25.54
64668;BME280;51077;42.716;23.344;2022-12-22T13:58:36;95249.38;;;20.75;25.75
64668;BME280;51077;42.716;23.344;2022-12-22T14:01:13;95245.03;;;20.55;26.00
64668;BME280;51077;42.716;23.344;2022-12-22T14:04:11;95238.31;;;20.41;26.21
64668;BME280;51077;42.716;23.344;2022-12-22T14:06:38;95247.03;;;20.27;26.27
64668;BME280;51077;42.716;23.344;2022-12-22T14:14:30;95242.44;;;19.95;26.49
64668;BME280;51077;42.716;23.344;2022-12-22T14:16:57;95234.16;;;19.88;26.43
64668;BME280;51077;42.716;23.344;2022-12-22T14:19:26;95236.72;;;19.76;26.71
64668;BME280;51077;42.716;23.344;2022-12-22T14:22:37;95244.25;;;19.66;26.77
64668;BME280;51077;42.716;23.344;2022-12-22T14:25:15;95237.53;;;19.51;26.96
64668;BME280;51077;42.716;23.344;2022-12-22T14:27:47;95236.34;;;19.37;27.09
64668;BME280;51077;42.716;23.344;2022-12-22T14:30:25;95237.25;;;19.22;27.23
64668;BME280;51077;42.716;23.344;2022-12-22T14:32:54;95240.72;;;19.05;27.37
64668;BME280;51077;42.716;23.344;2022-12-22T14:38:24;95243.63;;;18.65;27.98
64668;BME280;51077;42.716;23.344;2022-12-22T14:40:50;95239.34;;;18.39;28.06
64668;BME280;51077;42.716;23.344;2022-12-22T14:45:46;95239.56;;;17.93;28.56
64668;BME280;51077;42.716;23.344;2022-12-22T14:48:19;95242.97;;;17.69;28.70
64668;BME280;51077;42.716;23.344;2022-12-22T14:50:48;95243.56;;;17.44;29.05
64668;BME280;51077;42.716;23.344;2022-12-22T14:53:21;95245.66;;;17.21;29.57
64668;BME280;51077;42.716;23.344;2022-12-22T14:55:49;95242.16;;;16.97;29.54
64668;BME280;51077;42.716;23.344;2022-12-22T14:58:23;95238.81;;;16.76;29.86
64668;BME280;51077;42.716;23.344;2022-12-22T15:01:22;95245.63;;;16.52;30.20
64668;BME280;51077;42.716;23.344;2022-12-22T15:04:16;95249.63;;;16.28;30.33
64668;BME280;51077;42.716;23.344;2022-12-22T15:06:43;95247.75;;;16.07;30.63
64668;BME280;51077;42.716;23.344;2022-12-22T15:12:03;95248.31;;;15.70;31.07
64668;BME280;51077;42.716;23.344;2022-12-22T15:14:31;95247.84;;;15.50;33.63
64668;BME280;51077;42.716;23.344;2022-12-22T15:16:59;95244.97;;;15.35;34.71
64668;BME280;51077;42.716;23.344;2022-12-22T15:19:30;95251.69;;;15.19;34.80
64668;BME280;51077;42.716;23.344;2022-12-22T15:21:56;95246.81;;;15.04;34.73
64668;BME280;51077;42.716;23.344;2022-12-22T15:24:22;95249.44;;;14.89;34.81
64668;BME280;51077;42.716;23.344;2022-12-22T15:26:47;95253.56;;;14.74;34.96
64668;BME280;51077;42.716;23.344;2022-12-22T15:29:13;95254.19;;;14.60;34.93
64668;BME280;51077;42.716;23.344;2022-12-22T15:31:40;95261.00;;;14.45;35.02